Time;durP1;ratioP1;P1;durP2;ratioP2;P2;SDS_P1;SDS_P2;PMS_P1;PMS_P2;Temp;Humidity;BMP_temperature;BMP_pressure;BME280_temperature;BME280_humidity;BME280_pressure;Samples;Min_cycle;Max_cycle;Signal;HPM_P1;HPM_P2
2021/08/12 00:02:23;;;;;;;;;;;25.80;33.70;;;;;;4360841;32;20351;-37
2021/08/12 00:04:50;;;;;;;;;;;25.80;33.90;;;;;;4359153;32;20005;-37
2021/08/12 00:07:16;;;;;;;;;;;25.80;34.00;;;;;;4360944;32;20516;-38
2021/08/12 00:09:42;;;;;;;;;;;25.70;34.00;;;;;;4361194;32;19973;-38
2021/08/12 00:12:08;;;;;;;;;;;25.70;34.10;;;;;;4361220;32;19961;-38
2021/08/12 00:14:35;;;;;;;;;;;25.70;34.10;;;;;;4358951;32;20468;-38
2021/08/12 00:17:01;;;;;;;;;;;25.70;34.00;;;;;;4360729;32;19957;-37
2021/08/12 00:19:27;;;;;;;;;;;25.70;34.10;;;;;;4360757;32;19958;-38
2021/08/12 00:21:53;;;;;;;;;;;25.70;34.10;;;;;;4360499;32;20045;-37
2021/08/12 00:24:21;;;;;;;;;;;25.70;34.20;;;;;;4360696;32;20449;-36
2021/08/12 00:26:50;;;;;;;;;;;25.60;34.10;;;;;;4360567;32;19958;-37
2021/08/12 00:29:16;;;;;;;;;;;25.60;34.20;;;;;;4360827;32;19956;-37
2021/08/12 00:31:43;;;;;;;;;;;25.60;34.30;;;;;;4360800;32;19976;-37
2021/08/12 00:34:09;;;;;;;;;;;25.50;34.30;;;;;;4360510;32;19965;-37
2021/08/12 00:36:35;;;;;;;;;;;25.50;34.30;;;;;;4360868;32;20058;-38
2021/08/12 00:39:01;;;;;;;;;;;25.40;34.30;;;;;;4360706;32;19964;-37
2021/08/12 00:41:35;;;;;;;;;;;25.40;34.40;;;;;;4360418;32;20459;-37
2021/08/12 00:44:01;;;;;;;;;;;25.40;34.50;;;;;;4359177;32;19973;-37
2021/08/12 00:46:27;;;;;;;;;;;25.30;34.60;;;;;;4360446;32;19969;-37
2021/08/12 00:48:53;;;;;;;;;;;25.30;34.70;;;;;;4360267;32;19960;-37
2021/08/12 00:51:19;;;;;;;;;;;25.20;34.80;;;;;;4359701;32;19977;-38
2021/08/12 00:53:45;;;;;;;;;;;25.20;34.80;;;;;;4358828;32;20051;-38
2021/08/12 00:56:12;;;;;;;;;;;25.20;34.80;;;;;;4358899;32;19970;-38
2021/08/12 00:58:38;;;;;;;;;;;25.20;34.70;;;;;;4360287;32;19946;-37
2021/08/12 01:01:04;;;;;;;;;;;25.20;34.80;;;;;;4358444;32;20417;-38
2021/08/12 01:03:31;;;;;;;;;;;25.20;34.70;;;;;;4360066;32;19992;-38
2021/08/12 01:05:58;;;;;;;;;;;25.30;34.70;;;;;;4359966;32;20038;-38
2021/08/12 01:08:39;;;;;;;;;;;25.40;34.50;;;;;;4360123;32;19954;-37
2021/08/12 01:11:07;;;;;;;;;;;25.40;34.40;;;;;;4359990;32;20405;-38
2021/08/12 01:13:53;;;;;;;;;;;25.50;34.30;;;;;;4359507;32;20444;-38
2021/08/12 01:16:20;;;;;;;;;;;25.50;34.20;;;;;;4345861;32;20663;-38
2021/08/12 01:18:58;;;;;;;;;;;25.50;34.20;;;;;;4346482;32;19961;-38
2021/08/12 01:21:47;;;;;;;;;;;25.40;34.20;;;;;;4346565;32;19956;-38
2021/08/12 01:24:14;;;;;;;;;;;25.40;34.40;;;;;;4345949;32;20452;-39
2021/08/12 01:26:41;;;;;;;;;;;25.30;34.60;;;;;;4359506;32;21158;-38
2021/08/12 01:29:09;;;;;;;;;;;25.20;34.70;;;;;;4345861;32;20052;-39
2021/08/12 01:32:05;;;;;;;;;;;25.10;34.70;;;;;;4333708;32;19961;-38
2021/08/12 01:34:54;;;;;;;;;;;25.00;34.90;;;;;;4357960;32;19981;-38
2021/08/12 01:37:20;;;;;;;;;;;25.00;35.00;;;;;;4346060;32;20476;-38
2021/08/12 01:39:47;;;;;;;;;;;24.90;35.00;;;;;;4333647;32;19957;-38
2021/08/12 01:42:13;;;;;;;;;;;24.90;35.10;;;;;;4333810;32;20405;-39
2021/08/12 01:44:40;;;;;;;;;;;24.90;35.10;;;;;;4345572;32;19972;-39
2021/08/12 01:47:06;;;;;;;;;;;24.90;35.90;;;;;;4345903;32;19956;-38
2021/08/12 01:49:32;;;;;;;;;;;24.90;35.10;;;;;;4345663;32;19985;-38
2021/08/12 01:51:59;;;;;;;;;;;25.00;35.10;;;;;;4345654;32;19962;-38
2021/08/12 01:54:25;;;;;;;;;;;25.00;35.00;;;;;;4359117;32;19985;-39
2021/08/12 01:56:51;;;;;;;;;;;25.10;35.00;;;;;;4333625;32;20070;-37
2021/08/12 01:59:17;;;;;;;;;;;25.20;35.00;;;;;;4359484;32;19951;-38
2021/08/12 02:01:46;;;;;;;;;;;25.20;34.70;;;;;;4350599;32;19986;-38
2021/08/12 02:04:13;;;;;;;;;;;25.30;34.70;;;;;;4348530;32;19991;-38
2021/08/12 02:06:39;;;;;;;;;;;25.40;34.80;;;;;;4360090;32;19953;-37
2021/08/12 02:09:05;;;;;;;;;;;25.40;35.50;;;;;;4359760;32;19996;-38
2021/08/12 02:11:35;;;;;;;;;;;25.50;34.80;;;;;;4373848;32;20006;-37
2021/08/12 02:14:02;;;;;;;;;;;25.60;34.70;;;;;;4373946;32;20388;-37
2021/08/12 02:16:28;;;;;;;;;;;25.70;34.60;;;;;;4374225;32;19989;-37
2021/08/12 02:18:54;;;;;;;;;;;25.90;34.60;;;;;;4359737;32;20065;-37
2021/08/12 02:21:41;;;;;;;;;;;26.00;34.40;;;;;;4360145;32;19995;-39
2021/08/12 02:24:17;;;;;;;;;;;26.10;34.30;;;;;;4360319;32;20401;-38
2021/08/12 02:26:47;;;;;;;;;;;26.30;34.20;;;;;;4347816;32;20083;-37
2021/08/12 02:29:13;;;;;;;;;;;26.40;34.10;;;;;;4360101;32;19988;-38
2021/08/12 02:31:42;;;;;;;;;;;26.60;33.90;;;;;;4347259;32;19987;-38
2021/08/12 02:34:08;;;;;;;;;;;26.80;33.70;;;;;;4374059;32;19957;-38
2021/08/12 02:36:34;;;;;;;;;;;27.00;33.40;;;;;;4372402;32;19961;-38
2021/08/12 02:39:00;;;;;;;;;;;27.20;33.30;;;;;;4359455;32;19966;-39
2021/08/12 02:41:26;;;;;;;;;;;27.40;32.90;;;;;;4373722;32;19991;-38
2021/08/12 02:43:53;;;;;;;;;;;27.60;32.70;;;;;;4360523;32;19964;-38
2021/08/12 02:46:21;;;;;;;;;;;27.80;32.50;;;;;;4347588;32;19972;-38
2021/08/12 02:48:48;;;;;;;;;;;27.90;32.40;;;;;;4373602;32;19953;-39
2021/08/12 02:51:14;;;;;;;;;;;28.10;32.20;;;;;;4373260;32;20052;-38
2021/08/12 02:53:40;;;;;;;;;;;28.20;31.90;;;;;;4359586;32;19985;-39
2021/08/12 02:56:10;;;;;;;;;;;28.30;31.90;;;;;;4359406;32;19967;-38
2021/08/12 02:58:37;;;;;;;;;;;28.40;32.50;;;;;;4360106;32;19954;-37
2021/08/12 03:01:04;;;;;;;;;;;28.60;31.70;;;;;;4371329;32;19958;-38
2021/08/12 03:03:30;;;;;;;;;;;28.70;31.60;;;;;;4332559;32;20398;-39
2021/08/12 03:05:58;;;;;;;;;;;28.80;31.60;;;;;;4326095;33;20042;-39
2021/08/12 03:08:24;;;;;;;;;;;28.90;31.50;;;;;;4302570;33;19970;-39
2021/08/12 03:10:52;;;;;;;;;;;29.00;31.40;;;;;;4314131;33;20225;-38
2021/08/12 03:13:18;;;;;;;;;;;29.10;31.20;;;;;;4325645;33;20034;-38
2021/08/12 03:15:44;;;;;;;;;;;29.30;31.10;;;;;;4314361;33;19976;-38
2021/08/12 03:18:11;;;;;;;;;;;29.30;31.00;;;;;;4326299;33;20057;-37
2021/08/12 03:20:40;;;;;;;;;;;29.40;31.00;;;;;;4314308;33;20106;-37
2021/08/12 03:23:06;;;;;;;;;;;29.50;31.00;;;;;;4314263;33;20057;-38
2021/08/12 03:25:32;;;;;;;;;;;29.50;30.90;;;;;;4314044;33;20006;-38
2021/08/12 03:27:59;;;;;;;;;;;29.60;30.80;;;;;;4326192;33;20136;-37
2021/08/12 03:30:25;;;;;;;;;;;29.80;30.90;;;;;;4326529;33;19965;-38
2021/08/12 03:32:52;;;;;;;;;;;29.90;30.70;;;;;;4326036;33;19965;-38
2021/08/12 03:35:18;;;;;;;;;;;30.10;30.50;;;;;;4313875;33;19979;-38
2021/08/12 03:37:44;;;;;;;;;;;30.30;30.50;;;;;;4326134;33;20049;-38
2021/08/12 03:40:11;;;;;;;;;;;30.40;30.10;;;;;;4326510;33;19974;-38
2021/08/12 03:42:38;;;;;;;;;;;30.60;30.10;;;;;;4332175;32;19954;-38
2021/08/12 03:45:04;;;;;;;;;;;30.90;30.20;;;;;;4358211;32;19974;-38
2021/08/12 03:47:31;;;;;;;;;;;31.10;30.00;;;;;;4358017;32;20055;-38
2021/08/12 03:49:57;;;;;;;;;;;31.50;30.00;;;;;;4358272;32;19977;-38
2021/08/12 03:52:23;;;;;;;;;;;31.90;30.00;;;;;;4358681;32;19985;-38
2021/08/12 03:54:49;;;;;;;;;;;32.40;29.60;;;;;;4357708;32;20453;-39
2021/08/12 03:57:16;;;;;;;;;;;32.80;29.40;;;;;;4358315;32;19973;-39
2021/08/12 03:59:42;;;;;;;;;;;33.30;28.80;;;;;;4358033;32;20049;-38
2021/08/12 04:02:08;;;;;;;;;;;33.70;28.50;;;;;;4367092;32;19988;-37
2021/08/12 04:04:34;;;;;;;;;;;34.00;28.20;;;;;;4372881;32;20036;-37
2021/08/12 04:07:00;;;;;;;;;;;34.30;28.00;;;;;;4372673;32;19973;-39
2021/08/12 04:09:26;;;;;;;;;;;34.60;27.80;;;;;;4372885;32;19968;-38
2021/08/12 04:11:52;;;;;;;;;;;34.80;27.80;;;;;;4372810;32;20383;-38
2021/08/12 04:14:19;;;;;;;;;;;35.00;27.60;;;;;;4372407;32;20414;-38
2021/08/12 04:16:45;;;;;;;;;;;35.30;27.30;;;;;;4372809;32;19958;-38
2021/08/12 04:19:12;;;;;;;;;;;35.60;27.10;;;;;;4372407;32;20385;-38
2021/08/12 04:21:38;;;;;;;;;;;35.90;26.80;;;;;;4372822;32;20038;-38
2021/08/12 04:24:05;;;;;;;;;;;36.00;26.40;;;;;;4373225;32;20420;-36
2021/08/12 04:26:31;;;;;;;;;;;36.00;26.50;;;;;;4361028;32;19969;-38
2021/08/12 04:28:58;;;;;;;;;;;36.10;26.60;;;;;;4375928;32;19964;-38
2021/08/12 04:31:24;;;;;;;;;;;36.20;26.60;;;;;;4343001;33;20091;-37
2021/08/12 04:33:50;;;;;;;;;;;36.40;26.70;;;;;;4343047;33;19982;-38
2021/08/12 04:36:16;;;;;;;;;;;36.70;26.50;;;;;;4343200;33;19966;-38
2021/08/12 04:38:43;;;;;;;;;;;36.90;26.20;;;;;;4343160;33;20042;-37
2021/08/12 04:41:09;;;;;;;;;;;37.20;26.10;;;;;;4331009;33;19993;-38
2021/08/12 04:43:35;;;;;;;;;;;37.50;26.10;;;;;;4343166;33;20073;-38
2021/08/12 04:46:02;;;;;;;;;;;37.70;25.70;;;;;;4343365;33;19982;-40
2021/08/12 04:48:28;;;;;;;;;;;37.90;25.60;;;;;;4343541;33;19961;-37
2021/08/12 04:50:54;;;;;;;;;;;38.10;25.60;;;;;;4343293;33;19962;-37
2021/08/12 04:53:20;;;;;;;;;;;38.20;25.60;;;;;;4330709;33;19962;-38
2021/08/12 04:55:46;;;;;;;;;;;38.40;25.40;;;;;;4342645;33;19983;-38
2021/08/12 04:58:12;;;;;;;;;;;38.50;25.50;;;;;;4343137;33;20031;-37
2021/08/12 05:00:39;;;;;;;;;;;38.70;25.40;;;;;;4342788;33;20420;-37
2021/08/12 05:03:05;;;;;;;;;;;38.90;25.30;;;;;;4356389;32;19954;-37
2021/08/12 05:05:32;;;;;;;;;;;39.00;25.10;;;;;;4360139;32;19950;-38
2021/08/12 05:07:58;;;;;;;;;;;39.00;25.20;;;;;;4360158;32;19973;-37
2021/08/12 05:10:25;;;;;;;;;;;39.20;25.20;;;;;;4360066;32;19970;-37
2021/08/12 05:12:52;;;;;;;;;;;39.40;24.90;;;;;;4359912;32;19969;-37
2021/08/12 05:15:18;;;;;;;;;;;39.40;24.90;;;;;;4346170;32;20046;-38
2021/08/12 05:17:44;;;;;;;;;;;39.50;24.80;;;;;;4359918;32;19958;-37
2021/08/12 05:20:11;;;;;;;;;;;39.60;24.70;;;;;;4359905;32;19970;-37
2021/08/12 05:22:37;;;;;;;;;;;39.80;24.90;;;;;;4359977;32;19958;-38
2021/08/12 05:25:05;;;;;;;;;;;39.90;24.70;;;;;;4359689;32;20438;-38
2021/08/12 05:27:31;;;;;;;;;;;40.00;24.70;;;;;;4360218;32;20379;-38
2021/08/12 05:29:57;;;;;;;;;;;40.20;24.70;;;;;;4359440;32;19954;-38
2021/08/12 05:32:23;;;;;;;;;;;40.30;24.70;;;;;;4359658;32;19958;-38
2021/08/12 05:34:49;;;;;;;;;;;40.50;24.60;;;;;;4357602;32;20405;-38
2021/08/12 05:37:16;;;;;;;;;;;40.70;24.50;;;;;;4359184;32;19962;-36
2021/08/12 05:39:42;;;;;;;;;;;40.90;24.20;;;;;;4359292;32;19965;-37
2021/08/12 05:42:08;;;;;;;;;;;41.10;24.10;;;;;;4345863;32;20021;-39
2021/08/12 05:44:34;;;;;;;;;;;41.20;23.90;;;;;;4359497;32;19950;-38
2021/08/12 05:47:00;;;;;;;;;;;41.40;23.60;;;;;;4359202;32;19961;-38
2021/08/12 05:49:26;;;;;;;;;;;41.60;23.70;;;;;;4359230;32;19957;-38
2021/08/12 05:51:53;;;;;;;;;;;41.70;23.80;;;;;;4359168;32;19978;-39
2021/08/12 05:54:19;;;;;;;;;;;41.80;23.80;;;;;;4359332;32;19965;-38
2021/08/12 05:56:45;;;;;;;;;;;41.80;23.50;;;;;;4359600;32;19964;-38
2021/08/12 05:59:12;;;;;;;;;;;41.90;23.30;;;;;;4358984;32;20433;-39
2021/08/12 06:01:38;;;;;;;;;;;42.00;23.50;;;;;;4364817;32;20385;-39
2021/08/12 06:04:04;;;;;;;;;;;42.10;23.50;;;;;;4374350;32;19964;-39
2021/08/12 06:06:31;;;;;;;;;;;42.10;23.50;;;;;;4373907;32;20398;-39
2021/08/12 06:08:57;;;;;;;;;;;42.20;23.40;;;;;;4374094;32;20001;-38
2021/08/12 06:11:23;;;;;;;;;;;42.30;23.40;;;;;;4373601;32;19980;-39
2021/08/12 06:13:49;;;;;;;;;;;42.40;23.40;;;;;;4373716;32;19973;-38
2021/08/12 06:16:15;;;;;;;;;;;42.40;23.60;;;;;;4374321;32;19953;-38
2021/08/12 06:18:42;;;;;;;;;;;42.40;23.40;;;;;;4359925;32;20071;-39
2021/08/12 06:21:08;;;;;;;;;;;42.50;23.20;;;;;;4373936;32;20109;-39
2021/08/12 06:23:34;;;;;;;;;;;42.60;23.40;;;;;;4373939;32;19957;-38
2021/08/12 06:26:00;;;;;;;;;;;42.60;23.20;;;;;;4341179;33;20050;-39
2021/08/12 06:28:27;;;;;;;;;;;42.60;23.10;;;;;;4341571;33;20000;-38
2021/08/12 06:30:53;;;;;;;;;;;42.60;23.20;;;;;;4311454;33;20017;-38
2021/08/12 06:33:19;;;;;;;;;;;42.70;23.70;;;;;;4311688;33;20077;-39
2021/08/12 06:35:45;;;;;;;;;;;42.70;23.20;;;;;;4311903;33;19961;-39
2021/08/12 06:38:11;;;;;;;;;;;42.70;23.10;;;;;;4311991;33;19971;-39
2021/08/12 06:40:38;;;;;;;;;;;42.70;23.00;;;;;;4312089;33;19970;-39
2021/08/12 06:43:04;;;;;;;;;;;42.80;23.10;;;;;;4312240;33;20021;-39
2021/08/12 06:45:30;;;;;;;;;;;42.80;23.00;;;;;;4311849;33;20109;-39
2021/08/12 06:47:57;;;;;;;;;;;42.80;23.10;;;;;;4311576;33;20156;-39
2021/08/12 06:50:23;;;;;;;;;;;42.80;23.10;;;;;;4311800;33;19969;-38
2021/08/12 06:52:49;;;;;;;;;;;43.00;23.10;;;;;;4299794;33;19967;-37
2021/08/12 06:55:15;;;;;;;;;;;43.00;22.90;;;;;;4311726;33;19963;-39
2021/08/12 06:57:42;;;;;;;;;;;43.20;22.90;;;;;;4311817;33;20050;-38
2021/08/12 07:00:10;;;;;;;;;;;43.30;22.90;;;;;;4311811;33;19970;-38
2021/08/12 07:02:36;;;;;;;;;;;43.40;22.90;;;;;;4328616;32;19953;-38
2021/08/12 07:05:02;;;;;;;;;;;43.50;22.80;;;;;;4358627;32;20036;-40
2021/08/12 07:07:28;;;;;;;;;;;43.60;22.80;;;;;;4357979;32;19953;-38
2021/08/12 07:09:54;;;;;;;;;;;43.50;22.70;;;;;;4358455;32;19954;-38
2021/08/12 07:12:21;;;;;;;;;;;43.40;22.80;;;;;;4358072;32;20065;-38
2021/08/12 07:14:47;;;;;;;;;;;43.40;22.80;;;;;;4358282;32;20405;-39
2021/08/12 07:17:13;;;;;;;;;;;43.50;22.90;;;;;;4358415;32;20037;-38
2021/08/12 07:19:39;;;;;;;;;;;43.40;22.60;;;;;;4358265;32;19961;-38
2021/08/12 07:22:06;;;;;;;;;;;43.50;22.60;;;;;;4358220;32;20466;-39
2021/08/12 07:24:32;;;;;;;;;;;43.60;22.60;;;;;;4358270;32;19984;-39
2021/08/12 07:26:58;;;;;;;;;;;43.50;22.50;;;;;;4358424;32;19961;-39
2021/08/12 07:29:25;;;;;;;;;;;43.60;22.60;;;;;;4358427;32;20034;-38
2021/08/12 07:31:51;;;;;;;;;;;43.70;22.60;;;;;;4298867;33;19985;-38
2021/08/12 07:34:17;;;;;;;;;;;43.80;23.30;;;;;;4311078;33;20004;-39
2021/08/12 07:36:45;;;;;;;;;;;43.80;22.70;;;;;;4311471;33;20399;-39
2021/08/12 07:39:12;;;;;;;;;;;43.90;22.60;;;;;;4311196;33;19998;-40
2021/08/12 07:41:39;;;;;;;;;;;44.00;22.50;;;;;;4311553;33;20041;-38
2021/08/12 07:44:05;;;;;;;;;;;44.00;22.40;;;;;;4311267;33;20076;-39
2021/08/12 07:46:31;;;;;;;;;;;44.00;22.40;;;;;;4310747;33;19958;-39
2021/08/12 07:48:57;;;;;;;;;;;44.10;22.40;;;;;;4310974;33;20345;-39
2021/08/12 07:51:24;;;;;;;;;;;44.20;22.40;;;;;;4311327;33;20069;-39
2021/08/12 07:53:53;;;;;;;;;;;44.10;22.40;;;;;;4311294;33;20070;-39
2021/08/12 07:56:19;;;;;;;;;;;44.10;22.40;;;;;;4310855;33;20045;-39
2021/08/12 07:58:46;;;;;;;;;;;44.10;22.30;;;;;;4310907;33;19978;-39
2021/08/12 08:01:15;;;;;;;;;;;44.20;22.40;;;;;;4319353;33;19982;-38
2021/08/12 08:03:41;;;;;;;;;;;44.20;22.30;;;;;;4343589;33;19976;-38
2021/08/12 08:06:07;;;;;;;;;;;44.20;22.30;;;;;;4343400;33;20127;-38
2021/08/12 08:08:33;;;;;;;;;;;44.20;22.90;;;;;;4346537;32;20065;-38
2021/08/12 08:11:00;;;;;;;;;;;44.30;22.30;;;;;;4360869;32;19965;-38
2021/08/12 08:13:26;;;;;;;;;;;44.40;22.20;;;;;;4360450;32;19962;-38
2021/08/12 08:15:52;;;;;;;;;;;44.40;22.10;;;;;;4360740;32;19950;-38
2021/08/12 08:18:18;;;;;;;;;;;44.50;22.20;;;;;;4360567;32;19954;-39
2021/08/12 08:20:44;;;;;;;;;;;44.50;22.10;;;;;;4360184;32;19950;-39
2021/08/12 08:23:11;;;;;;;;;;;44.60;22.20;;;;;;4360903;32;19997;-37
2021/08/12 08:25:38;;;;;;;;;;;44.70;22.20;;;;;;4346954;32;19973;-38
2021/08/12 08:28:04;;;;;;;;;;;44.70;22.20;;;;;;4360568;32;19986;-38
2021/08/12 08:30:32;;;;;;;;;;;44.80;22.10;;;;;;4360522;32;20047;-38
2021/08/12 08:32:58;;;;;;;;;;;44.80;22.10;;;;;;4360740;32;19957;-38
2021/08/12 08:35:25;;;;;;;;;;;44.80;22.00;;;;;;4360516;32;19954;-38
2021/08/12 08:37:52;;;;;;;;;;;44.80;21.90;;;;;;4360034;32;19993;-38
2021/08/12 08:40:19;;;;;;;;;;;44.90;22.00;;;;;;4346799;32;20469;-39
2021/08/12 08:42:46;;;;;;;;;;;45.00;22.20;;;;;;4360622;32;19961;-39
2021/08/12 08:45:15;;;;;;;;;;;44.90;22.10;;;;;;4360461;32;20114;-38
2021/08/12 08:47:41;;;;;;;;;;;44.90;22.70;;;;;;4360427;32;20394;-39
2021/08/12 08:50:09;;;;;;;;;;;44.90;22.10;;;;;;4346639;32;19969;-37
2021/08/12 08:52:36;;;;;;;;;;;45.00;22.10;;;;;;4346051;32;20004;-37
2021/08/12 08:55:02;;;;;;;;;;;44.90;22.10;;;;;;4333810;32;20066;-38
2021/08/12 08:57:29;;;;;;;;;;;44.70;22.00;;;;;;4346417;32;20398;-38
2021/08/12 08:59:55;;;;;;;;;;;44.80;22.00;;;;;;4346202;32;20459;-37
2021/08/12 09:02:21;;;;;;;;;;;44.90;22.00;;;;;;4356146;32;20402;-37
2021/08/12 09:04:47;;;;;;;;;;;45.10;22.00;;;;;;4360960;32;19945;-37
2021/08/12 09:07:13;;;;;;;;;;;45.20;22.00;;;;;;4375211;32;19981;-37
2021/08/12 09:09:40;;;;;;;;;;;45.20;21.90;;;;;;4375001;32;19961;-38
2021/08/12 09:12:06;;;;;;;;;;;45.30;21.90;;;;;;4374320;32;19957;-38
2021/08/12 09:14:40;;;;;;;;;;;45.30;21.90;;;;;;4374215;32;20005;-38
2021/08/12 09:17:25;;;;;;;;;;;45.30;21.90;;;;;;4374976;32;19985;-39
2021/08/12 09:20:14;;;;;;;;;;;45.40;21.90;;;;;;4374538;32;19956;-37
2021/08/12 09:22:47;;;;;;;;;;;45.30;21.90;;;;;;4361107;32;20043;-39
2021/08/12 09:25:14;;;;;;;;;;;45.40;21.90;;;;;;4374573;32;19949;-38
2021/08/12 09:27:40;;;;;;;;;;;45.50;21.90;;;;;;4374516;32;20470;-38
2021/08/12 09:30:10;;;;;;;;;;;45.50;21.80;;;;;;4374727;32;20048;-38
2021/08/12 09:32:49;;;;;;;;;;;45.50;21.90;;;;;;4374287;32;19954;-39
2021/08/12 09:35:26;;;;;;;;;;;45.60;21.80;;;;;;4374509;32;20062;-37
2021/08/12 09:37:52;;;;;;;;;;;45.70;21.80;;;;;;4374633;32;19958;-37
2021/08/12 09:40:25;;;;;;;;;;;45.90;21.80;;;;;;4360547;32;20058;-38
2021/08/12 09:42:55;;;;;;;;;;;45.80;21.80;;;;;;4360536;32;19980;-37
2021/08/12 09:45:23;;;;;;;;;;;45.90;21.70;;;;;;4374072;32;20053;-39
2021/08/12 09:47:49;;;;;;;;;;;46.00;21.70;;;;;;4374518;32;20491;-39
2021/08/12 09:50:31;;;;;;;;;;;46.10;21.60;;;;;;4360365;32;19980;-38
2021/08/12 09:52:58;;;;;;;;;;;46.20;21.60;;;;;;4374317;32;19960;-38
2021/08/12 09:55:24;;;;;;;;;;;46.30;21.40;;;;;;4372415;32;20045;-38
2021/08/12 09:57:55;;;;;;;;;;;46.40;21.50;;;;;;4373935;32;20443;-39
2021/08/12 10:00:21;;;;;;;;;;;46.40;21.50;;;;;;4360245;32;20060;-39
2021/08/12 10:02:47;;;;;;;;;;;46.40;21.50;;;;;;4361270;32;19958;-38
2021/08/12 10:05:13;;;;;;;;;;;46.40;21.50;;;;;;4358906;32;20047;-38
2021/08/12 10:07:44;;;;;;;;;;;46.50;21.50;;;;;;4359144;32;20001;-37
2021/08/12 10:10:16;;;;;;;;;;;46.50;21.40;;;;;;4359122;32;20003;-39
2021/08/12 10:12:47;;;;;;;;;;;46.60;21.30;;;;;;4358840;32;20376;-38
2021/08/12 10:15:15;;;;;;;;;;;46.60;21.40;;;;;;4373957;32;19965;-38
2021/08/12 10:17:42;;;;;;;;;;;46.60;21.30;;;;;;4373673;32;19989;-39
2021/08/12 10:20:17;;;;;;;;;;;46.70;21.30;;;;;;4374089;32;19967;-38
2021/08/12 10:22:44;;;;;;;;;;;46.60;21.30;;;;;;4360129;32;19956;-38
2021/08/12 10:25:11;;;;;;;;;;;46.60;21.20;;;;;;4373686;32;19989;-38
2021/08/12 10:27:39;;;;;;;;;;;46.70;21.20;;;;;;4373952;32;20031;-38
2021/08/12 10:30:06;;;;;;;;;;;46.70;21.30;;;;;;4373874;32;19961;-38
2021/08/12 10:32:33;;;;;;;;;;;46.80;21.40;;;;;;4373650;32;20146;-38
2021/08/12 10:34:59;;;;;;;;;;;46.80;21.30;;;;;;4373554;32;20392;-38
2021/08/12 10:37:26;;;;;;;;;;;46.90;21.20;;;;;;4359863;32;19957;-37
2021/08/12 10:39:52;;;;;;;;;;;46.90;21.30;;;;;;4373708;32;19957;-38
2021/08/12 10:42:18;;;;;;;;;;;46.90;21.20;;;;;;4373638;32;19997;-38
2021/08/12 10:44:44;;;;;;;;;;;46.90;21.20;;;;;;4359453;32;19964;-38
2021/08/12 10:47:54;;;;;;;;;;;46.90;21.10;;;;;;4359336;32;19976;-39
2021/08/12 10:50:26;;;;;;;;;;;46.90;21.10;;;;;;4373659;32;19957;-37
2021/08/12 10:53:02;;;;;;;;;;;47.00;21.70;;;;;;4373533;32;19981;-40
2021/08/12 10:55:28;;;;;;;;;;;47.10;21.10;;;;;;4373070;32;20024;-37
2021/08/12 10:58:29;;;;;;;;;;;47.30;21.10;;;;;;4373094;32;20022;-39
2021/08/12 11:00:56;;;;;;;;;;;47.50;21.10;;;;;;4347050;32;19969;-38
2021/08/12 11:03:53;;;;;;;;;;;47.50;21.00;;;;;;4358018;32;20461;-38
2021/08/12 11:06:22;;;;;;;;;;;47.50;21.00;;;;;;4357629;32;19950;-38
2021/08/12 11:08:53;;;;;;;;;;;47.50;21.00;;;;;;4358559;32;19969;-38
2021/08/12 11:11:23;;;;;;;;;;;47.50;21.50;;;;;;4358521;32;20391;-37
2021/08/12 11:13:49;;;;;;;;;;;47.60;20.90;;;;;;4358615;32;20034;-37
2021/08/12 11:16:16;;;;;;;;;;;47.70;20.80;;;;;;4358418;32;20026;-37
2021/08/12 11:18:54;;;;;;;;;;;47.70;20.80;;;;;;4358008;32;19958;-37
2021/08/12 11:21:30;;;;;;;;;;;47.70;20.80;;;;;;4358658;32;19961;-37
2021/08/12 11:24:02;;;;;;;;;;;47.80;20.70;;;;;;4358320;32;19975;-39
2021/08/12 11:26:41;;;;;;;;;;;47.80;20.80;;;;;;4358591;32;19956;-38
2021/08/12 11:29:31;;;;;;;;;;;47.80;20.80;;;;;;4358257;32;19950;-38
2021/08/12 11:31:59;;;;;;;;;;;47.80;20.80;;;;;;4358019;32;19954;-37
2021/08/12 11:34:31;;;;;;;;;;;47.80;20.70;;;;;;4341713;33;19970;-38
2021/08/12 11:37:12;;;;;;;;;;;47.70;20.80;;;;;;4343692;33;19964;-38
2021/08/12 11:39:59;;;;;;;;;;;47.70;20.80;;;;;;4344119;33;19982;-38
2021/08/12 11:42:34;;;;;;;;;;;47.70;20.70;;;;;;4344084;33;20033;-39
2021/08/12 11:45:21;;;;;;;;;;;47.70;20.70;;;;;;4343752;33;19982;-39
2021/08/12 11:47:55;;;;;;;;;;;47.70;20.80;;;;;;4343616;33;19962;-39
2021/08/12 11:50:22;;;;;;;;;;;47.70;20.80;;;;;;4331932;33;19969;-39
2021/08/12 11:52:49;;;;;;;;;;;47.70;20.80;;;;;;4319138;33;20042;-39
2021/08/12 11:55:19;;;;;;;;;;;47.70;20.80;;;;;;4343530;33;20033;-39
2021/08/12 11:57:55;;;;;;;;;;;47.60;20.70;;;;;;4343738;33;19970;-39
2021/08/12 12:00:23;;;;;;;;;;;47.70;20.80;;;;;;4331160;33;19997;-37
2021/08/12 12:02:51;;;;;;;;;;;47.70;20.70;;;;;;4343563;33;20375;-40
2021/08/12 12:05:18;;;;;;;;;;;47.70;20.80;;;;;;4350929;32;19981;-39
2021/08/12 12:07:46;;;;;;;;;;;47.70;20.80;;;;;;4360862;32;19961;-38
2021/08/12 12:10:21;;;;;;;;;;;47.60;20.80;;;;;;4360808;32;19981;-39
2021/08/12 12:12:47;;;;;;;;;;;47.60;20.90;;;;;;4359995;32;20057;-38
2021/08/12 12:15:28;;;;;;;;;;;47.50;20.90;;;;;;4376003;32;19968;-38
2021/08/12 12:17:54;;;;;;;;;;;47.50;20.80;;;;;;4361742;32;19953;-38
2021/08/12 12:20:20;;;;;;;;;;;47.30;20.90;;;;;;4361901;32;19973;-38
2021/08/12 12:23:04;;;;;;;;;;;47.20;20.80;;;;;;4375864;32;20400;-39
2021/08/12 12:25:33;;;;;;;;;;;47.20;20.80;;;;;;4361447;32;19969;-39
2021/08/12 12:28:00;;;;;;;;;;;47.20;20.70;;;;;;4374366;32;20048;-39
2021/08/12 12:30:27;;;;;;;;;;;47.20;20.70;;;;;;4361641;32;20065;-38
2021/08/12 12:33:13;;;;;;;;;;;47.20;20.80;;;;;;4376063;32;19972;-38
2021/08/12 12:35:42;;;;;;;;;;;47.10;20.70;;;;;;4375670;32;19953;-38
2021/08/12 12:38:11;;;;;;;;;;;47.10;20.90;;;;;;4375547;32;20021;-38
2021/08/12 12:40:37;;;;;;;;;;;46.90;20.80;;;;;;4375367;32;19953;-38
2021/08/12 12:43:04;;;;;;;;;;;46.90;20.90;;;;;;4375304;32;20047;-38
2021/08/12 12:45:52;;;;;;;;;;;46.90;21.00;;;;;;4374335;32;19954;-39
2021/08/12 12:48:33;;;;;;;;;;;46.90;20.90;;;;;;4374575;32;19953;-39
2021/08/12 12:51:03;;;;;;;;;;;46.90;20.90;;;;;;4374984;32;20314;-39
2021/08/12 12:53:36;;;;;;;;;;;47.00;21.00;;;;;;4375715;32;20045;-39
2021/08/12 12:56:04;;;;;;;;;;;47.00;20.80;;;;;;4375212;32;19965;-39
2021/08/12 12:58:36;;;;;;;;;;;47.00;20.80;;;;;;4375042;32;19973;-39
2021/08/12 13:01:10;;;;;;;;;;;46.90;20.70;;;;;;4372602;32;20496;-38
2021/08/12 13:03:37;;;;;;;;;;;46.80;20.80;;;;;;4359594;32;19965;-39
2021/08/12 13:06:06;;;;;;;;;;;46.70;20.90;;;;;;4359782;32;19973;-38
2021/08/12 13:08:49;;;;;;;;;;;46.70;20.90;;;;;;4345631;32;19985;-38
2021/08/12 13:11:19;;;;;;;;;;;46.70;20.90;;;;;;4360063;32;19958;-39
2021/08/12 13:13:47;;;;;;;;;;;46.70;20.90;;;;;;4359988;32;19947;-39
2021/08/12 13:16:16;;;;;;;;;;;46.70;21.00;;;;;;4359917;32;20055;-38
2021/08/12 13:18:59;;;;;;;;;;;46.60;21.00;;;;;;4345935;32;19961;-39
2021/08/12 13:21:33;;;;;;;;;;;46.60;21.00;;;;;;4359636;32;19957;-37
2021/08/12 13:24:01;;;;;;;;;;;46.60;21.00;;;;;;4346454;32;20033;-37
2021/08/12 13:26:35;;;;;;;;;;;46.60;21.00;;;;;;4359947;32;19950;-38
2021/08/12 13:29:10;;;;;;;;;;;46.60;21.00;;;;;;4359584;32;19954;-39
2021/08/12 13:31:39;;;;;;;;;;;46.60;20.90;;;;;;4359653;32;19965;-38
2021/08/12 13:34:05;;;;;;;;;;;46.50;20.80;;;;;;4359536;32;20476;-37
2021/08/12 13:36:32;;;;;;;;;;;46.50;21.00;;;;;;4345773;32;19989;-40
2021/08/12 13:38:58;;;;;;;;;;;46.30;21.00;;;;;;4359933;32;19958;-38
2021/08/12 13:41:25;;;;;;;;;;;46.20;21.10;;;;;;4345646;32;19993;-38
2021/08/12 13:43:51;;;;;;;;;;;46.10;21.10;;;;;;4359698;32;19960;-37
2021/08/12 13:46:17;;;;;;;;;;;46.00;21.10;;;;;;4359346;32;19965;-39
2021/08/12 13:48:43;;;;;;;;;;;45.90;21.20;;;;;;4359223;32;20068;-39
2021/08/12 13:51:09;;;;;;;;;;;45.80;21.30;;;;;;4359406;32;20030;-39
2021/08/12 13:53:35;;;;;;;;;;;45.80;21.30;;;;;;4359633;32;19981;-39
2021/08/12 13:56:02;;;;;;;;;;;45.80;21.40;;;;;;4359274;32;20389;-38
2021/08/12 13:58:28;;;;;;;;;;;45.70;21.30;;;;;;4345199;32;19969;-37
2021/08/12 14:00:54;;;;;;;;;;;45.60;21.30;;;;;;4345191;32;19962;-38
2021/08/12 14:03:23;;;;;;;;;;;45.60;21.30;;;;;;4357241;32;20491;-38
2021/08/12 14:05:49;;;;;;;;;;;45.50;21.40;;;;;;4359031;32;19961;-38
2021/08/12 14:08:15;;;;;;;;;;;45.50;21.50;;;;;;4341013;32;19978;-38
2021/08/12 14:10:43;;;;;;;;;;;45.40;21.50;;;;;;4341224;33;20466;-38
2021/08/12 14:13:09;;;;;;;;;;;45.40;21.40;;;;;;4329498;33;20060;-38
2021/08/12 14:15:35;;;;;;;;;;;45.30;21.30;;;;;;4341231;33;19973;-38
2021/08/12 14:18:02;;;;;;;;;;;45.30;21.30;;;;;;4341905;32;20057;-38
2021/08/12 14:20:28;;;;;;;;;;;45.30;21.40;;;;;;4341141;32;19978;-38
2021/08/12 14:22:54;;;;;;;;;;;45.20;21.40;;;;;;4341385;33;20428;-38
2021/08/12 14:25:20;;;;;;;;;;;45.20;21.40;;;;;;4341547;32;20055;-38